Impacts TAF Board
For situational awareness. Not to be used for flight planning purposes.
IDs:

KEWR - Newark Intl, NJ, US

Issued at 0540 UTC 21 Oct 2018
Updated at 0749 UTC 21 Oct 2018
Potential Impact None Slight Moderate High
Time<<22/08Z 22/09Z 22/10Z 22/11Z 22/12Z 22/13Z 22/14Z 22/15Z 22/16Z 22/17Z 22/18Z 22/19Z 22/20Z
Type PRVL PRVL PRVL PRVL
VIS >6 >6 >6 >6
CIG -- -- -- --
Cover FEW FEW FEW FEW
FltCat VFR VFR VFR VFR
WX -- -- -- --
WDir 270 270 270 270
WSpd 6 6 6 6
WGst -- -- -- --
Raw TAF
KEWR 210540Z 2106/2212 29012KT P6SM -SHRA SCT025 BKN060
  FM210900 32018G25KT P6SM SCT025 BKN060
  FM211400 33022G33KT P6SM SCT050
  FM212200 31015G25KT P6SM FEW050
  FM220100 31013G20KT P6SM FEW050
  FM220300 31010KT P6SM SCT150
  FM220800 27006KT P6SM FEW150


METAR Board
Radar Display
Forecast Discussion
For situational awareness. Not to be used for flight planning purposes.